Reklama

Seznam meteostanic a jejich METAR

Vyhledat místa podle abecedy:
A B C D E F G H I J K L M N O P Q R S T U V W X Y Z

Filtrovat:

ID stanice:
a/nebo
Název místa (fulltext):
 
Místo (ID)Naposledy načteno 
Brno - Tuřany (Brno/Tu) 16.02.2019 01:00 UTC Zobrazit data
Místo: Brno - Tuřany
Teplota: 0 °C (pocitová: -4.3 °C)
Vítr: 1 m/s z(e) 330°
Počasí: oblačno
Dohlednost: 25 km
Zákl. oblačnosti: 3/8 6900 m
Vlhkost: 93%
Červená - Opava (Cervena/uL) 16.02.2019 01:00 UTC Zobrazit data
Místo: Červená - Opava
Teplota: 4 °C (pocitová: -0.8 °C)
Vítr: 2 m/s z(e) 150°
Počasí:
Dohlednost: 35 km
Zákl. oblačnosti: N/A
Vlhkost: 52%
České Budějovice (C.Budej/po) 16.02.2019 01:00 UTC Zobrazit data
Místo: České Budějovice
Teplota: 0 °C (pocitová: -5.9 °C)
Vítr: 2 m/s z(e) 170°
Počasí:
Dohlednost: 35 km
Zákl. oblačnosti: N/A
Vlhkost: 80%
Cheb (Cheb) 16.02.2019 01:00 UTC Zobrazit data
Místo: Cheb
Teplota: -1 °C (pocitová: -5.5 °C)
Vítr: 1 m/s z(e) 150°
Počasí: zataženo
Dohlednost: 9 km
Zákl. oblačnosti: N/A
Vlhkost: 93%
Chotusice - Čáslav (Caslav) 16.02.2019 01:00 UTC Zobrazit data
Místo: Chotusice - Čáslav
Teplota: -4 °C (pocitová: -9.2 °C)
Vítr: 1 m/s z(e) 290°
Počasí: mlha
Dohlednost: 300 m
Zákl. oblačnosti: 3/8 6600 m
Vlhkost: 100%
Churáňov (Churanov) 16.02.2019 01:00 UTC Zobrazit data
Místo: Churáňov
Teplota: 3 °C (pocitová: -2.1 °C)
Vítr: 2 m/s z(e) 210°
Počasí: skoro zataženo
Dohlednost: 35 km
Zákl. oblačnosti: 2/8 9000 m;5/8 9000 m
Vlhkost: 52%
Doksany - Litoměřice (Doksany) 16.02.2019 01:00 UTC Zobrazit data
Místo: Doksany - Litoměřice
Teplota: -3 °C (pocitová: -8 °C)
Vítr: 1 m/s z(e) 160°
Počasí: mlha
Dohlednost: 200 m
Zákl. oblačnosti: 1/8 180 m
Vlhkost: 100%
Dukovany (Dukovany) 16.02.2019 01:00 UTC Zobrazit data
Místo: Dukovany
Teplota: 1 °C (pocitová: -3.1 °C)
Vítr: 1 m/s z(e) 340°
Počasí:
Dohlednost: 19 km
Zákl. oblačnosti: N/A
Vlhkost: 81%
Holešov (Holesov) 16.02.2019 01:00 UTC Zobrazit data
Místo: Holešov
Teplota: 0 °C (pocitová: -4.3 °C)
Vítr: 1 m/s z(e) 200°
Počasí: zataženo
Dohlednost: 4700 m
Zákl. oblačnosti: 1/8 9000 m
Vlhkost: 93%
Kadaň - Tušimice (Tusimice) 16.02.2019 01:00 UTC Zobrazit data
Místo: Kadaň - Tušimice
Teplota: 1 °C (pocitová: -6 °C)
Vítr: 3 m/s z(e) 260°
Počasí:
Dohlednost: 30 km
Zákl. oblačnosti: N/A
Vlhkost: 93%
Karlovy Vary (K.Vary) 16.02.2019 01:00 UTC Zobrazit data
Místo: Karlovy Vary
Teplota: 0 °C (pocitová: -4.3 °C)
Vítr: 1 m/s z(e) 350°
Počasí: slunečno
Dohlednost: 50 km
Zákl. oblačnosti: N/A
Vlhkost: 87%
Kocelovice (Kocelovice) 16.02.2019 01:00 UTC Zobrazit data
Místo: Kocelovice
Teplota: 0 °C (pocitová: -4.3 °C)
Vítr: 1 m/s z(e) 0°
Počasí:
Dohlednost: 23 km
Zákl. oblačnosti: N/A
Vlhkost: 87%
Kopisty (Kopisty) 15.02.2019 21:00 UTC Zobrazit data
Místo: Kopisty
Teplota: 0 °C (pocitová: 13.1 °C)
Vítr: 0 m/s z(e) 0°
Počasí: slunečno
Dohlednost: 30 km
Zákl. oblačnosti: N/A
Vlhkost: 100%
Kostelní Myslová (K.Myslova) 16.02.2019 01:00 UTC Zobrazit data
Místo: Kostelní Myslová
Teplota: 0 °C (pocitová: -4.3 °C)
Vítr: 1 m/s z(e) 340°
Počasí:
Dohlednost: 35 km
Zákl. oblačnosti: N/A
Vlhkost: 87%
Křešín - Kramolín (Kramolin) 16.02.2019 01:00 UTC Zobrazit data
Místo: Křešín - Kramolín
Teplota: 0 °C (pocitová: -4.3 °C)
Vítr: 1 m/s z(e) 0°
Počasí:
Dohlednost: 35 km
Zákl. oblačnosti: N/A
Vlhkost: 80%
Kuchařovice - Znojmo (Kucharovic) 16.02.2019 01:00 UTC Zobrazit data
Místo: Kuchařovice - Znojmo
Teplota: 1 °C (pocitová: -6 °C)
Vítr: 3 m/s z(e) 340°
Počasí:
Dohlednost: 18 km
Zákl. oblačnosti: N/A
Vlhkost: 87%
Liberec (Liberec) 16.02.2019 01:00 UTC Zobrazit data
Místo: Liberec
Teplota: -1 °C (pocitová: -7.2 °C)
Vítr: 2 m/s z(e) 140°
Počasí:
Dohlednost: 20 km
Zákl. oblačnosti: N/A
Vlhkost: 80%
Luká (Luka) 16.02.2019 01:00 UTC Zobrazit data
Místo: Luká
Teplota: 2 °C (pocitová: -4.7 °C)
Vítr: 3 m/s z(e) 280°
Počasí: zataženo
Dohlednost: 22 km
Zákl. oblačnosti: 6/8 8700 m;8/8 9000 m
Vlhkost: 81%
Lysá Hora (Lysa Hora) 16.02.2019 01:00 UTC Zobrazit data
Místo: Lysá Hora
Teplota: 0 °C (pocitová: -10.9 °C)
Vítr: 8 m/s z(e) 360°
Počasí:
Dohlednost: 35 km
Zákl. oblačnosti: N/A
Vlhkost: 60%
Milešovka (Milesovka) 16.02.2019 01:00 UTC Zobrazit data
Místo: Milešovka
Teplota: 7 °C (pocitová: 0.6 °C)
Vítr: 5 m/s z(e) 240°
Počasí: skorojasno
Dohlednost: 60 km
Zákl. oblačnosti: 2/8 9000 m
Vlhkost: 61%
Mošnov (Ostrava/Mo) 16.02.2019 01:00 UTC Zobrazit data
Místo: Mošnov
Teplota: 0 °C (pocitová: -8.4 °C)
Vítr: 4 m/s z(e) 210°
Počasí: zataženo
Dohlednost: 3000 m
Zákl. oblačnosti: 3/8 6900 m
Vlhkost: 100%
Náměšť nad Oslavou (Namest n/O) 16.02.2019 01:00 UTC Zobrazit data
Místo: Náměšť nad Oslavou
Teplota: 3 °C (pocitová: -2.1 °C)
Vítr: 2 m/s z(e) 300°
Počasí: slunečno
Dohlednost: 20 km
Zákl. oblačnosti: N/A
Vlhkost: 70%
Pardubice (Pardubice) 16.02.2019 01:00 UTC Zobrazit data
Místo: Pardubice
Teplota: -2 °C (pocitová: -6.7 °C)
Vítr: 1 m/s z(e) 170°
Počasí: mlha
Dohlednost: 300 m
Zákl. oblačnosti: 8/8 30 m
Vlhkost: 100%
Pec pod Sněžkou (Pec p.Snez) 16.02.2019 01:00 UTC Zobrazit data
Místo: Pec pod Sněžkou
Teplota: 0 °C (pocitová: -4.3 °C)
Vítr: 1 m/s z(e) 220°
Počasí: oblačno
Dohlednost: 35 km
Zákl. oblačnosti: 4/8 9000 m
Vlhkost: 69%
Plzeň město - Mikulka (Plzen/Miku) 16.02.2019 01:00 UTC Zobrazit data
Místo: Plzeň město - Mikulka
Teplota: 0 °C (pocitová: -4.3 °C)
Vítr: 1 m/s z(e) 190°
Počasí:
Dohlednost: 10 km
Zákl. oblačnosti: N/A
Vlhkost: 93%
Polom (Polom) 16.02.2019 01:00 UTC Zobrazit data
Místo: Polom
Teplota: 6 °C (pocitová: 3.1 °C)
Vítr: 1 m/s z(e) 30°
Počasí: oblačno
Dohlednost: 20 km
Zákl. oblačnosti: 3/8 6300 m
Vlhkost: 42%
Praha - Karlov (Praha/Kar) 16.02.2019 01:00 UTC Zobrazit data
Místo: Praha - Karlov
Teplota: 1 °C (pocitová: -4.6 °C)
Vítr: 2 m/s z(e) 200°
Počasí: skoro zataženo
Dohlednost: 16 km
Zákl. oblačnosti: 5/8 9300 m
Vlhkost: 81%
Praha - Kbely (Praha/Kbe) 16.02.2019 01:00 UTC Zobrazit data
Místo: Praha - Kbely
Teplota: 0 °C (pocitová: -4.3 °C)
Vítr: 1 m/s z(e) 220°
Počasí: skorojasno
Dohlednost: 10 km
Zákl. oblačnosti: 1/8 7500 m
Vlhkost: 93%
Praha - Libuš (Praha/Lib) 16.02.2019 01:00 UTC Zobrazit data
Místo: Praha - Libuš
Teplota: 0 °C (pocitová: -4.3 °C)
Vítr: 1 m/s z(e) 0°
Počasí:
Dohlednost: 14 km
Zákl. oblačnosti: N/A
Vlhkost: 87%
Praha - Ruzyně (Praha/Ru) 16.02.2019 01:00 UTC Zobrazit data
Místo: Praha - Ruzyně
Teplota: 1 °C (pocitová: -6 °C)
Vítr: 3 m/s z(e) 220°
Počasí: skorojasno
Dohlednost: 30 km
Zákl. oblačnosti: 1/8 7800 m
Vlhkost: 87%
Přibyslav (Pribyslav) 16.02.2019 01:00 UTC Zobrazit data
Místo: Přibyslav
Teplota: 0 °C (pocitová: -7.3 °C)
Vítr: 3 m/s z(e) 120°
Počasí:
Dohlednost: 24 km
Zákl. oblačnosti: N/A
Vlhkost: 75%
Přimda (Primda) 16.02.2019 01:00 UTC Zobrazit data
Místo: Přimda
Teplota: 6 °C (pocitová: 16.9 °C)
Vítr: 0 m/s z(e) 0°
Počasí: zataženo
Dohlednost: 35 km
Zákl. oblačnosti: 8/8 9300 m
Vlhkost: 57%
Šerák (Serak) 16.02.2019 01:00 UTC Zobrazit data
Místo: Šerák
Teplota: 4 °C (pocitová: -2.9 °C)
Vítr: 4 m/s z(e) 350°
Počasí: zataženo
Dohlednost: 29 km
Zákl. oblačnosti: 8/8 6900 m
Vlhkost: 8%
Svratouch (Svratouch) 16.02.2019 01:00 UTC Zobrazit data
Místo: Svratouch
Teplota: 5 °C (pocitová: -0.7 °C)
Vítr: 3 m/s z(e) 340°
Počasí:
Dohlednost: 35 km
Zákl. oblačnosti: N/A
Vlhkost: 53%
Temelín (Temelin) 16.02.2019 01:00 UTC Zobrazit data
Místo: Temelín
Teplota: 0 °C (pocitová: -5.9 °C)
Vítr: 2 m/s z(e) 230°
Počasí:
Dohlednost: 20 km
Zákl. oblačnosti: N/A
Vlhkost: 87%
Ústí nad Labem - Kočkov (Usti n/L) 16.02.2019 01:00 UTC Zobrazit data
Místo: Ústí nad Labem - Kočkov
Teplota: 2 °C (pocitová: -1.8 °C)
Vítr: 1 m/s z(e) 160°
Počasí:
Dohlednost: 21 km
Zákl. oblačnosti: N/A
Vlhkost: 87%
Ústí nad Orlicí (Usti n/O) 16.02.2019 01:00 UTC Zobrazit data
Místo: Ústí nad Orlicí
Teplota: -2 °C (pocitová: 11.9 °C)
Vítr: 0 m/s z(e) 0°
Počasí: zataženo
Dohlednost: 1800 m
Zákl. oblačnosti: N/A
Vlhkost: 100%
Aalborg (EKYT) 15.02.2019 09:59 UTC Zobrazit METAR
EKYT 150959Z 23009KT CAVOK 05/04 Q1029
Aarhus (EKAH) 14.02.2019 11:50 UTC Zobrazit METAR
EKAH 141150Z 24005KT 200V290 7000 OVC004 07/06 Q1031
Abu Dhabi (OMAA) 16.02.2019 01:00 UTC Zobrazit METAR
OMAA 160100Z 09006KT CAVOK 18/12 Q1015 BECMG 16010KT
Abuja (DNAA) 16.02.2019 01:00 UTC Zobrazit METAR
DNAA 160100Z 04007KT 6000 NSC 24/M02 Q1015 NOSIG
Accra (DGAA) 16.02.2019 01:00 UTC Zobrazit METAR
DGAA 160100Z 20005KT 9999 FEW014 29/26 Q1012 NOSIG
Addis Abeba (HAAB) 15.02.2019 23:00 UTC Zobrazit METAR
HAAB 152300Z 16004KT 9999 BKN026 17/06 Q1027
Agana (PGUM) 16.02.2019 00:54 UTC Zobrazit METAR
PGUM 160054Z 07017G20KT 10SM FEW030 29/22 A3004 RMK AO2 SLP164 T02890222
Ahe Island (NTHE) Zatím nenačteno  
Akureyri (BIAR) 16.02.2019 01:00 UTC Zobrazit METAR
BIAR 160100Z 18004KT 140V220 CAVOK M05/M08 Q1005
Almaty (UAAA) Zatím nenačteno  
Amman (OJAM) 15.02.2019 22:00 UTC Zobrazit METAR
OJAM 152200Z 24009KT 3000 BLDU FEW040 SCT080 08/02 Q1015 NOSIG
Amsterdam (EHAM) 16.02.2019 00:55 UTC Zobrazit METAR
EHAM 160055Z 18004KT CAVOK 04/01 Q1025 NOSIG
Antananarivo (FMMI) 16.02.2019 01:00 UTC Zobrazit METAR
FMMI 160100Z 06003KT 9999 FEW017 SCT020 19/18 Q1019 NOSIG
1 2 3 ... 9 Další
Reklama

Počasí na Váš email

Emaily jsou bez reklamy a bez spamu



Odhlásit newsletter

Reklama


Lunární kalendář

  • 19.02.
  • 26.02.
  • 06.03.
  • 14.03.



Reklama


Reklama
Povinné ručení
Reklama



Reklama